createdAt,value
2023-02-19T00:01:38.750Z,101118.59
2023-02-19T00:04:41.648Z,101121.25
2023-02-19T00:07:45.666Z,101126.56
2023-02-19T00:10:48.402Z,101122.19
2023-02-19T00:13:53.688Z,101123.00
2023-02-19T00:16:56.375Z,101127.31
2023-02-19T00:19:59.052Z,101119.47
2023-02-19T00:23:03.058Z,101122.94
2023-02-19T00:26:17.651Z,101121.94
2023-02-19T00:29:22.658Z,101117.53
2023-02-19T00:32:25.396Z,101110.53
2023-02-19T00:35:28.100Z,101117.63
2023-02-19T00:38:32.833Z,101108.81
2023-02-19T00:41:35.834Z,101110.50
2023-02-19T00:44:38.535Z,101103.53
2023-02-19T00:47:41.259Z,101100.06
2023-02-19T00:50:44.586Z,101105.34
2023-02-19T00:53:49.228Z,101115.91
2023-02-19T00:56:52.539Z,101114.97
2023-02-19T00:59:55.298Z,101115.88
2023-02-19T01:02:57.962Z,101118.59
2023-02-19T01:06:01.045Z,101122.16
2023-02-19T01:09:07.139Z,101122.03
2023-02-19T01:12:09.822Z,101128.25
2023-02-19T01:15:12.466Z,101126.53
2023-02-19T01:18:15.170Z,101131.91
2023-02-19T01:21:19.970Z,101128.47
2023-02-19T01:24:24.028Z,101126.59
2023-02-19T01:27:26.775Z,101128.63
2023-02-19T01:30:29.559Z,101130.34
2023-02-19T01:33:32.951Z,101128.59
2023-02-19T01:36:36.837Z,101120.72
2023-02-19T01:39:40.877Z,101131.28
2023-02-19T01:42:44.808Z,101125.16
2023-02-19T01:45:48.150Z,101130.34
2023-02-19T01:48:50.911Z,101128.69
2023-02-19T01:51:58.917Z,101126.13
2023-02-19T01:55:05.946Z,101125.59
2023-02-19T01:58:10.344Z,101119.19
2023-02-19T02:01:13.778Z,101118.47
2023-02-19T02:04:18.253Z,101118.59
2023-02-19T02:07:38.794Z,101116.72
2023-02-19T02:10:43.911Z,101125.91
2023-02-19T02:13:47.212Z,101126.97
2023-02-19T02:16:59.816Z,101124.06
2023-02-19T02:20:28.746Z,101115.56
2023-02-19T02:23:41.726Z,101117.44
2023-02-19T02:26:59.617Z,101114.03
2023-02-19T02:30:18.602Z,101119.31
2023-02-19T02:33:30.176Z,101111.34
2023-02-19T02:36:36.815Z,101120.13
2023-02-19T02:39:42.161Z,101120.00
2023-02-19T02:42:45.234Z,101126.03
2023-02-19T02:45:49.320Z,101131.78
2023-02-19T02:48:56.663Z,101133.13
2023-02-19T02:52:21.342Z,101132.25
2023-02-19T02:55:24.757Z,101132.97
2023-02-19T02:58:29.060Z,101126.13
2023-02-19T03:01:55.124Z,101124.69
2023-02-19T03:05:25.555Z,101112.16
2023-02-19T03:08:32.627Z,101119.22
2023-02-19T03:11:54.797Z,101119.28
2023-02-19T03:15:21.827Z,101132.56
2023-02-19T03:18:46.817Z,101130.59
2023-02-19T03:21:54.482Z,101134.91
2023-02-19T03:25:19.234Z,101133.13
2023-02-19T03:28:46.663Z,101136.72
2023-02-19T03:31:53.366Z,101140.28
2023-02-19T03:35:03.019Z,101147.28
2023-02-19T03:38:10.840Z,101150.69
2023-02-19T03:41:22.027Z,101147.19
2023-02-19T03:44:36.699Z,101151.47
2023-02-19T03:47:49.812Z,101156.69
2023-02-19T03:51:05.808Z,101160.25
2023-02-19T03:54:14.504Z,101161.13
2023-02-19T03:57:21.867Z,101166.41
2023-02-19T04:00:31.097Z,101164.69
2023-02-19T04:03:38.528Z,101166.41
2023-02-19T04:06:43.762Z,101174.19
2023-02-19T04:09:50.391Z,101177.03
2023-02-19T04:12:57.734Z,101173.56
2023-02-19T04:16:07.754Z,101174.41
2023-02-19T04:19:13.337Z,101189.31
2023-02-19T04:22:18.369Z,101183.13
2023-02-19T04:25:22.296Z,101179.63
2023-02-19T04:28:26.114Z,101194.56
2023-02-19T04:31:35.237Z,101194.53
2023-02-19T04:34:38.015Z,101203.41
2023-02-19T04:37:42.109Z,101208.66
2023-02-19T04:40:44.900Z,101213.88
2023-02-19T04:43:47.603Z,101215.66
2023-02-19T04:46:50.389Z,101226.16
2023-02-19T04:49:53.059Z,101227.91
2023-02-19T04:52:57.357Z,101226.13
2023-02-19T04:56:07.012Z,101228.81
2023-02-19T04:59:09.772Z,101242.91
2023-02-19T05:02:12.478Z,101240.31
2023-02-19T05:05:15.202Z,101241.13
2023-02-19T05:08:19.237Z,101246.41
2023-02-19T05:11:24.050Z,101251.69
2023-02-19T05:14:26.819Z,101251.72
2023-02-19T05:17:29.475Z,101253.44
2023-02-19T05:20:32.168Z,101252.63
2023-02-19T05:23:36.231Z,101255.25
2023-02-19T05:26:39.004Z,101257.03
2023-02-19T05:29:41.653Z,101260.63
2023-02-19T05:32:44.348Z,101261.47
2023-02-19T05:35:48.660Z,101264.09
2023-02-19T05:38:55.725Z,101268.53
2023-02-19T05:41:58.428Z,101276.50
2023-02-19T05:45:01.087Z,101289.69
2023-02-19T05:48:04.330Z,101288.75
2023-02-19T05:51:09.457Z,101294.09
2023-02-19T05:54:13.683Z,101294.19
2023-02-19T05:57:16.450Z,101296.84
2023-02-19T06:00:21.455Z,101302.97
2023-02-19T06:03:24.581Z,101306.53
2023-02-19T06:06:28.020Z,101310.94
2023-02-19T06:09:32.304Z,101310.97
2023-02-19T06:12:34.991Z,101320.66
2023-02-19T06:15:38.413Z,101330.22
2023-02-19T06:18:41.588Z,101348.59
2023-02-19T06:21:44.324Z,101344.22
2023-02-19T06:24:48.745Z,101353.94
2023-02-19T06:27:51.401Z,101360.97
2023-02-19T06:30:54.027Z,101363.59
2023-02-19T06:33:56.772Z,101361.84
2023-02-19T06:36:59.824Z,101379.41
2023-02-19T06:40:03.932Z,101381.13
2023-02-19T06:43:06.643Z,101398.69
2023-02-19T06:46:11.410Z,101400.50
2023-02-19T06:49:15.297Z,101414.50
2023-02-19T06:52:17.952Z,101420.63
2023-02-19T06:55:21.991Z,101422.47
2023-02-19T06:58:24.952Z,101426.75
2023-02-19T07:01:29.000Z,101425.78
2023-02-19T07:04:31.664Z,101436.34
2023-02-19T07:07:34.346Z,101442.44
2023-02-19T07:10:38.357Z,101438.03
2023-02-19T07:13:41.268Z,101440.66
2023-02-19T07:16:44.613Z,101449.50
2023-02-19T07:19:47.364Z,101456.50
2023-02-19T07:22:50.093Z,101462.59
2023-02-19T07:25:54.149Z,101472.31
2023-02-19T07:28:56.929Z,101478.38
2023-02-19T07:31:59.593Z,101486.19
2023-02-19T07:35:02.397Z,101487.03
2023-02-19T07:38:05.164Z,101490.59
2023-02-19T07:41:09.892Z,101501.06
2023-02-19T07:44:16.389Z,101503.72
2023-02-19T07:47:19.038Z,101512.41
2023-02-19T07:50:21.744Z,101522.03
2023-02-19T07:53:25.260Z,101519.38
2023-02-19T07:56:29.794Z,101521.06
2023-02-19T07:59:32.445Z,101524.66
2023-02-19T08:02:52.827Z,101531.50
2023-02-19T08:05:55.522Z,101534.97
2023-02-19T08:08:58.515Z,101546.34
2023-02-19T08:12:19.774Z,101554.44
2023-02-19T08:15:22.590Z,101550.94
2023-02-19T08:18:27.751Z,101553.47
2023-02-19T08:21:31.308Z,101555.19
2023-02-19T08:24:34.895Z,101561.41
2023-02-19T08:27:38.973Z,101558.72
2023-02-19T08:30:45.245Z,101568.19
2023-02-19T08:33:47.999Z,101558.69
2023-02-19T08:36:50.715Z,101553.34
2023-02-19T08:39:53.406Z,101563.75
2023-02-19T08:42:57.387Z,101566.38
2023-02-19T08:46:00.530Z,101563.69
2023-02-19T08:49:03.263Z,101573.97
2023-02-19T08:52:05.942Z,101586.50
2023-02-19T08:55:08.952Z,101589.72
2023-02-19T08:58:13.454Z,101598.66
2023-02-19T09:01:18.293Z,101603.78
2023-02-19T09:04:21.374Z,101612.41
2023-02-19T09:07:24.089Z,101615.78
2023-02-19T09:10:26.845Z,101630.69
2023-02-19T09:13:30.916Z,101632.47
2023-02-19T09:16:33.572Z,101642.03
2023-02-19T09:19:36.843Z,101641.34
2023-02-19T09:22:39.545Z,101649.94
2023-02-19T09:25:42.249Z,101660.66
2023-02-19T09:28:46.260Z,101668.16
2023-02-19T09:31:49.142Z,101668.03
2023-02-19T09:34:51.823Z,101672.00
2023-02-19T09:37:54.498Z,101677.56
2023-02-19T09:40:58.298Z,101665.91
2023-02-19T09:44:04.865Z,101674.38
2023-02-19T09:47:16.474Z,101676.88
2023-02-19T09:50:23.984Z,101685.94
2023-02-19T09:53:36.195Z,101693.38
2023-02-19T09:56:38.977Z,101698.22
2023-02-19T09:59:47.282Z,101689.31
2023-02-19T10:02:52.970Z,101694.69
2023-02-19T10:05:56.464Z,101702.25
2023-02-19T10:09:14.320Z,101725.22
2023-02-19T10:12:27.569Z,101730.84
2023-02-19T10:15:36.081Z,101743.72
2023-02-19T10:18:42.295Z,101739.91
2023-02-19T10:21:45.905Z,101752.25
2023-02-19T10:24:53.095Z,101753.53
2023-02-19T10:27:55.968Z,101755.78
2023-02-19T10:31:01.542Z,101768.94
2023-02-19T10:34:05.556Z,101772.06
2023-02-19T10:37:15.378Z,101767.94
2023-02-19T10:40:20.011Z,101760.47
2023-02-19T10:43:32.958Z,101772.53
2023-02-19T10:46:43.272Z,101772.97
2023-02-19T10:49:48.734Z,101774.66
2023-02-19T10:52:54.096Z,101777.63
2023-02-19T10:56:09.116Z,101777.63
2023-02-19T10:59:25.716Z,101772.56
2023-02-19T11:02:30.996Z,101777.75
2023-02-19T11:05:34.936Z,101782.41
2023-02-19T11:08:58.616Z,101794.34
2023-02-19T11:12:01.484Z,101799.53
2023-02-19T11:15:21.082Z,101809.44
2023-02-19T11:18:27.215Z,101804.47
2023-02-19T11:21:33.081Z,101805.03
2023-02-19T11:24:38.005Z,101810.91
2023-02-19T11:27:56.022Z,101812.94
2023-02-19T11:31:16.215Z,101797.19
2023-02-19T11:34:34.962Z,101789.69
2023-02-19T11:37:37.796Z,101788.66
2023-02-19T11:40:44.823Z,101806.59
2023-02-19T11:43:59.701Z,101809.94
2023-02-19T11:47:26.798Z,101807.78
2023-02-19T11:50:47.431Z,101821.53
2023-02-19T11:54:01.964Z,101812.03
2023-02-19T11:57:12.554Z,101812.78
2023-02-19T12:00:24.800Z,101811.59
2023-02-19T12:03:55.981Z,101820.94
2023-02-19T12:07:12.272Z,101811.19
2023-02-19T12:10:21.858Z,101817.75
2023-02-19T12:13:34.246Z,101814.44
2023-02-19T12:16:44.422Z,101807.72
2023-02-19T12:20:03.676Z,101817.66
2023-02-19T12:23:33.813Z,101823.28
2023-02-19T12:26:44.749Z,101808.81
2023-02-19T12:29:59.951Z,101835.06
2023-02-19T12:33:28.558Z,101831.38
2023-02-19T12:36:39.430Z,101834.38
2023-02-19T12:39:48.774Z,101831.84
2023-02-19T12:43:02.836Z,101840.97
2023-02-19T12:46:09.257Z,101835.69
2023-02-19T12:49:15.536Z,101842.94
2023-02-19T12:52:22.454Z,101839.19
2023-02-19T12:55:29.825Z,101851.41
2023-02-19T12:58:39.812Z,101846.84
2023-02-19T13:01:49.849Z,101843.84
2023-02-19T13:04:59.716Z,101832.84
2023-02-19T13:08:07.528Z,101831.75
2023-02-19T13:11:17.492Z,101824.41
2023-02-19T13:14:27.257Z,101821.28
2023-02-19T13:17:38.496Z,101810.19
2023-02-19T13:20:44.147Z,101811.69
2023-02-19T13:24:03.053Z,101813.72
2023-02-19T13:27:24.847Z,101817.50
2023-02-19T13:30:41.998Z,101804.34
2023-02-19T13:33:55.263Z,101792.72
2023-02-19T13:36:59.663Z,101807.31
2023-02-19T13:40:06.895Z,101805.50
2023-02-19T13:43:26.457Z,101809.03
2023-02-19T13:46:37.709Z,101810.75
2023-02-19T13:49:43.406Z,101812.25
2023-02-19T13:52:46.083Z,101802.47
2023-02-19T13:55:53.902Z,101805.69
2023-02-19T13:59:01.415Z,101816.78
2023-02-19T14:02:26.580Z,101814.91
2023-02-19T14:06:00.186Z,101813.69
2023-02-19T14:09:02.882Z,101807.28
2023-02-19T14:12:19.702Z,101828.50
2023-02-19T14:15:45.159Z,101826.69
2023-02-19T14:18:47.976Z,101819.09
2023-02-19T14:21:50.785Z,101830.22
2023-02-19T14:24:54.372Z,101841.69
2023-02-19T14:28:02.391Z,101844.13
2023-02-19T14:31:18.553Z,101836.00
2023-02-19T14:34:25.126Z,101839.09
2023-02-19T14:37:27.949Z,101827.38
2023-02-19T14:40:36.579Z,101832.31
2023-02-19T14:43:40.510Z,101831.38
2023-02-19T14:46:50.553Z,101821.31
2023-02-19T14:49:55.678Z,101818.53
2023-02-19T14:53:01.344Z,101818.66
2023-02-19T14:56:04.291Z,101819.44
2023-02-19T14:59:10.282Z,101811.72
2023-02-19T15:02:17.871Z,101807.66
2023-02-19T15:05:25.088Z,101808.19
2023-02-19T15:08:34.142Z,101801.44
2023-02-19T15:11:38.417Z,101807.47
2023-02-19T15:14:41.498Z,101821.38
2023-02-19T15:17:45.759Z,101815.84
2023-02-19T15:20:49.748Z,101817.56
2023-02-19T15:23:54.914Z,101825.06
2023-02-19T15:26:57.727Z,101826.75
2023-02-19T15:30:00.411Z,101822.00
2023-02-19T15:33:05.887Z,101816.31
2023-02-19T15:36:10.640Z,101813.28
2023-02-19T15:39:20.502Z,101809.88
2023-02-19T15:42:26.773Z,101810.22
2023-02-19T15:45:32.551Z,101826.47
2023-02-19T15:48:44.217Z,101817.28
2023-02-19T15:51:51.526Z,101820.34
2023-02-19T15:54:58.447Z,101829.81
2023-02-19T15:58:09.620Z,101834.69
2023-02-19T16:01:18.031Z,101831.94
2023-02-19T16:04:22.309Z,101841.06
2023-02-19T16:07:27.344Z,101843.59
2023-02-19T16:10:32.498Z,101842.13
2023-02-19T16:13:36.183Z,101842.25
2023-02-19T16:16:41.921Z,101834.31
2023-02-19T16:19:49.747Z,101848.34
2023-02-19T16:22:57.359Z,101847.41
2023-02-19T16:26:01.971Z,101847.75
2023-02-19T16:29:04.779Z,101850.69
2023-02-19T16:32:09.544Z,101849.63
2023-02-19T16:35:37.395Z,101846.91
2023-02-19T16:38:40.052Z,101841.03
2023-02-19T16:42:12.513Z,101855.28
2023-02-19T16:45:15.403Z,101850.31
2023-02-19T16:48:20.067Z,101857.75
2023-02-19T16:51:26.457Z,101855.28
2023-02-19T16:54:29.114Z,101861.44
2023-02-19T16:57:31.769Z,101863.38
2023-02-19T17:00:34.957Z,101859.03
2023-02-19T17:03:39.564Z,101865.16
2023-02-19T17:06:44.344Z,101875.72
2023-02-19T17:09:47.219Z,101872.31
2023-02-19T17:12:50.170Z,101867.84
2023-02-19T17:15:52.917Z,101866.38
2023-02-19T17:18:56.397Z,101871.28
2023-02-19T17:22:00.608Z,101867.91
2023-02-19T17:25:03.496Z,101867.41
2023-02-19T17:28:06.474Z,101864.59
2023-02-19T17:31:10.067Z,101867.22
2023-02-19T17:34:12.994Z,101870.91
2023-02-19T17:37:17.504Z,101867.34
2023-02-19T17:40:32.204Z,101861.28
2023-02-19T17:43:36.075Z,101856.00
2023-02-19T17:46:39.443Z,101863.13
2023-02-19T17:49:42.146Z,101862.09
2023-02-19T17:52:46.287Z,101867.34
2023-02-19T17:55:49.092Z,101876.16
2023-02-19T17:58:51.850Z,101884.31
2023-02-19T18:01:55.103Z,101883.47
2023-02-19T18:04:57.811Z,101879.88
2023-02-19T18:08:01.842Z,101888.81
2023-02-19T18:11:04.778Z,101887.94
2023-02-19T18:14:07.450Z,101889.69
2023-02-19T18:17:10.273Z,101898.38
2023-02-19T18:20:15.189Z,101888.66
2023-02-19T18:23:20.499Z,101900.81
2023-02-19T18:26:23.252Z,101902.41
2023-02-19T18:29:28.810Z,101906.16
2023-02-19T18:32:31.485Z,101907.81
2023-02-19T18:35:34.930Z,101912.63
2023-02-19T18:38:39.331Z,101893.97
2023-02-19T18:41:42.211Z,101896.59
2023-02-19T18:44:48.551Z,101890.41
2023-02-19T18:47:51.345Z,101891.53
2023-02-19T18:50:54.144Z,101895.00
2023-02-19T18:53:58.369Z,101879.94
2023-02-19T18:57:02.209Z,101888.75
2023-02-19T19:00:06.368Z,101885.28
2023-02-19T19:03:09.082Z,101886.94
2023-02-19T19:06:11.969Z,101883.41
2023-02-19T19:09:16.073Z,101880.03
2023-02-19T19:12:18.857Z,101875.69
2023-02-19T19:15:22.064Z,101873.97
2023-02-19T19:18:25.261Z,101871.28
2023-02-19T19:21:27.957Z,101858.75
2023-02-19T19:24:31.994Z,101857.16
2023-02-19T19:27:34.658Z,101845.53
2023-02-19T19:30:37.851Z,101841.28
2023-02-19T19:33:40.652Z,101847.69
2023-02-19T19:36:43.393Z,101838.94
2023-02-19T19:39:47.423Z,101844.91
2023-02-19T19:42:52.136Z,101850.19
2023-02-19T19:45:54.987Z,101838.06
2023-02-19T19:48:57.660Z,101840.66
2023-02-19T19:52:01.192Z,101849.38
2023-02-19T19:55:05.760Z,101839.00
2023-02-19T19:58:08.480Z,101837.31
2023-02-19T20:01:11.502Z,101846.06
2023-02-19T20:04:14.438Z,101843.28
2023-02-19T20:07:17.296Z,101846.25
2023-02-19T20:10:21.816Z,101860.28
2023-02-19T20:13:24.716Z,101852.38
2023-02-19T20:16:28.418Z,101866.56
2023-02-19T20:19:31.193Z,101863.13
2023-02-19T20:22:34.788Z,101845.63
2023-02-19T20:25:38.840Z,101847.25
2023-02-19T20:28:45.105Z,101839.47
2023-02-19T20:31:52.546Z,101837.72
2023-02-19T20:34:55.526Z,101825.47
2023-02-19T20:37:58.246Z,101814.91
2023-02-19T20:41:02.358Z,101829.09
2023-02-19T20:44:05.533Z,101833.59
2023-02-19T20:47:08.162Z,101822.06
2023-02-19T20:50:11.758Z,101825.56
2023-02-19T20:53:14.425Z,101820.31
2023-02-19T20:56:18.432Z,101817.63
2023-02-19T20:59:22.697Z,101819.34
2023-02-19T21:02:29.152Z,101811.50
2023-02-19T21:05:31.947Z,101829.22
2023-02-19T21:08:35.430Z,101821.16
2023-02-19T21:11:39.660Z,101822.88
2023-02-19T21:14:43.170Z,101827.31
2023-02-19T21:17:46.508Z,101817.63
2023-02-19T21:20:49.211Z,101818.63
2023-02-19T21:23:51.942Z,101809.00
2023-02-19T21:26:56.136Z,101807.13
2023-02-19T21:29:58.821Z,101816.03
2023-02-19T21:33:01.665Z,101820.63
2023-02-19T21:36:05.045Z,101827.63
2023-02-19T21:39:10.017Z,101820.47
2023-02-19T21:42:14.080Z,101817.94
2023-02-19T21:45:16.933Z,101823.13
2023-02-19T21:48:19.577Z,101816.97
2023-02-19T21:51:28.372Z,101808.28
2023-02-19T21:54:31.083Z,101811.75
2023-02-19T21:57:35.133Z,101799.53
2023-02-19T22:00:37.990Z,101790.72
2023-02-19T22:03:40.690Z,101787.09
2023-02-19T22:06:43.491Z,101786.28
2023-02-19T22:09:46.275Z,101776.66
2023-02-19T22:12:50.285Z,101760.78
2023-02-19T22:15:52.947Z,101764.28
2023-02-19T22:18:56.970Z,101751.25
2023-02-19T22:21:59.644Z,101760.88
2023-02-19T22:25:02.328Z,101764.28
2023-02-19T22:28:07.617Z,101765.25
2023-02-19T22:31:10.277Z,101752.13
2023-02-19T22:34:13.547Z,101761.69
2023-02-19T22:37:16.243Z,101753.78
2023-02-19T22:40:18.917Z,101757.22
2023-02-19T22:43:23.032Z,101753.72
2023-02-19T22:46:28.248Z,101753.59
2023-02-19T22:49:30.957Z,101745.84
2023-02-19T22:52:33.788Z,101761.66
2023-02-19T22:55:36.535Z,101766.13
2023-02-19T22:58:40.791Z,101764.34
2023-02-19T23:01:43.752Z,101765.19
2023-02-19T23:04:46.416Z,101757.41
2023-02-19T23:07:49.141Z,101756.47
2023-02-19T23:10:51.817Z,101760.81
2023-02-19T23:13:55.990Z,101755.56
2023-02-19T23:16:58.858Z,101752.13
2023-02-19T23:20:01.801Z,101747.69
2023-02-19T23:23:04.490Z,101739.88
2023-02-19T23:26:07.307Z,101725.72
2023-02-19T23:29:11.674Z,101721.38
2023-02-19T23:32:14.349Z,101716.94
2023-02-19T23:35:17.238Z,101710.94
2023-02-19T23:38:20.112Z,101706.47
2023-02-19T23:41:22.855Z,101709.16
2023-02-19T23:44:27.230Z,101710.91
2023-02-19T23:47:30.801Z,101699.31
2023-02-19T23:50:33.502Z,101688.00
2023-02-19T23:53:36.185Z,101688.97
2023-02-19T23:56:39.107Z,101687.09
2023-02-19T23:59:43.171Z,101681.81
